Time;durP1;ratioP1;P1;durP2;ratioP2;P2;SDS_P1;SDS_P2;PMS_P1;PMS_P2;Temp;Humidity;BMP_temperature;BMP_pressure;BME280_temperature;BME280_humidity;BME280_pressure;Samples;Min_cycle;Max_cycle;Signal;HPM_P1;HPM_P2
2022/01/17 00:01:47;;;;;;;43.90;24.77;;;;;;;1.63;100.00;98729.97;2135577;82;21074;-83
2022/01/17 00:04:48;;;;;;;36.45;19.40;;;;;;;1.63;100.00;98726.57;2131416;82;21005;-83
2022/01/17 00:07:49;;;;;;;33.53;19.65;;;;;;;1.65;100.00;98726.81;2134213;82;20970;-83
2022/01/17 00:10:50;;;;;;;30.40;18.90;;;;;;;1.65;100.00;98719.08;2135764;82;20954;-82
2022/01/17 00:13:50;;;;;;;30.35;18.77;;;;;;;1.65;100.00;98719.55;2143432;82;20942;-83
2022/01/17 00:17:06;;;;;;;29.92;18.65;;;;;;;1.64;100.00;98707.08;2134436;82;21061;-83
2022/01/17 00:19:55;;;;;;;25.52;16.10;;;;;;;1.64;100.00;98693.36;2138974;83;21018;-83
2022/01/17 00:22:56;;;;;;;25.10;16.40;;;;;;;1.62;100.00;98692.20;2148662;82;21004;-83
2022/01/17 00:25:57;;;;;;;26.77;17.62;;;;;;;1.61;100.00;98695.72;2150359;83;21114;-83
2022/01/17 00:28:58;;;;;;;24.40;16.80;;;;;;;1.62;100.00;98668.97;2150297;83;21568;-84
2022/01/17 00:31:59;;;;;;;29.48;20.48;;;;;;;1.65;100.00;98667.92;2150539;82;20910;-84
2022/01/17 00:34:59;;;;;;;28.35;18.77;;;;;;;1.67;100.00;98668.14;2148261;82;21494;-83
2022/01/17 00:38:00;;;;;;;24.82;15.68;;;;;;;1.69;100.00;98661.55;2155759;82;20994;-83
2022/01/17 00:41:01;;;;;;;21.75;14.47;;;;;;;1.68;100.00;98668.95;2168374;81;20997;-84
2022/01/17 00:44:03;;;;;;;19.57;13.65;;;;;;;1.68;100.00;98659.92;2144803;83;21051;-83
2022/01/17 00:47:04;;;;;;;33.38;19.25;;;;;;;1.67;100.00;98662.16;2143124;83;21083;-83
2022/01/17 00:50:05;;;;;;;20.12;13.55;;;;;;;1.68;100.00;98652.17;2143069;83;20953;-82
2022/01/17 00:53:05;;;;;;;19.15;13.18;;;;;;;1.65;100.00;98646.80;2144850;82;20981;-83
2022/01/17 00:56:06;;;;;;;20.62;13.88;;;;;;;1.67;100.00;98650.55;2142979;83;21052;-84
2022/01/17 00:59:07;;;;;;;17.25;11.53;;;;;;;1.68;100.00;98652.17;2143569;82;21527;-84
2022/01/17 01:02:08;;;;;;;16.65;13.60;;;;;;;1.66;100.00;98639.88;2158940;82;21056;-84
2022/01/17 01:05:09;;;;;;;16.15;11.12;;;;;;;1.65;100.00;98649.85;2144056;82;21045;-84
2022/01/17 01:08:09;;;;;;;16.80;11.10;;;;;;;1.65;100.00;98638.23;2143328;83;21031;-83
2022/01/17 01:11:10;;;;;;;19.75;13.25;;;;;;;1.67;100.00;98633.29;2146058;82;20981;-84
2022/01/17 01:14:11;;;;;;;18.40;13.10;;;;;;;1.64;100.00;98627.06;2147047;82;20977;-85
2022/01/17 01:17:30;;;;;;;17.73;13.22;;;;;;;1.68;100.00;98627.66;2150346;82;21002;-82
2022/01/17 01:20:33;;;;;;;18.35;13.75;;;;;;;1.68;100.00;98611.69;2147576;83;21065;-81
2022/01/17 01:30:00;;;;;;;20.55;13.55;;;;;;;1.71;100.00;98594.65;2169385;82;21012;-84
2022/01/17 01:33:01;;;;;;;21.50;15.85;;;;;;;1.73;100.00;98588.06;2151165;82;21077;-83
2022/01/17 01:36:10;;;;;;;34.55;20.40;;;;;;;1.76;100.00;98603.32;2143079;83;21050;-83
2022/01/17 01:39:07;;;;;;;27.60;17.15;;;;;;;1.78;100.00;98603.19;2142266;83;21080;-84
2022/01/17 01:42:08;;;;;;;22.75;14.03;;;;;;;1.79;100.00;98598.37;2145060;83;21049;-83
2022/01/17 01:45:09;;;;;;;26.42;17.50;;;;;;;1.79;100.00;98587.57;2147678;82;20946;-83
2022/01/17 01:48:12;;;;;;;26.73;15.30;;;;;;;1.78;100.00;98574.80;2150307;83;21068;-84
2022/01/17 01:51:13;;;;;;;24.63;16.80;;;;;;;1.82;100.00;98573.58;2150560;82;21516;-83
2022/01/17 01:54:14;;;;;;;22.77;15.83;;;;;;;1.82;100.00;98565.36;2144658;83;20991;-83
2022/01/17 01:57:14;;;;;;;23.73;15.90;;;;;;;1.85;100.00;98560.44;2142941;83;20997;-84
2022/01/17 02:00:15;;;;;;;28.95;17.05;;;;;;;1.82;100.00;98556.32;2145501;82;21122;-84
2022/01/17 02:03:16;;;;;;;25.37;18.48;;;;;;;1.85;100.00;98553.98;2156216;81;21033;-83
2022/01/17 02:06:17;;;;;;;25.32;16.30;;;;;;;1.84;100.00;98554.45;2169126;82;20958;-83
2022/01/17 02:09:18;;;;;;;45.92;24.65;;;;;;;1.84;100.00;98555.75;2159345;81;21067;-84
2022/01/17 02:12:21;;;;;;;30.75;19.40;;;;;;;1.86;100.00;98532.38;2147939;83;21004;-84
2022/01/17 02:15:21;;;;;;;33.42;19.92;;;;;;;1.88;100.00;98514.98;2155031;82;21036;-83
2022/01/17 02:18:29;;;;;;;29.60;18.77;;;;;;;1.90;100.00;98500.17;2166574;81;20988;-83
2022/01/17 02:21:45;;;;;;;29.15;17.32;;;;;;;1.93;100.00;98500.75;2149620;81;21069;-82
2022/01/17 02:24:36;;;;;;;30.02;17.92;;;;;;;1.96;100.00;98499.66;2141493;83;21526;-83
2022/01/17 02:27:37;;;;;;;28.57;19.07;;;;;;;1.98;100.00;98503.73;2167344;82;21021;-83
2022/01/17 02:30:37;;;;;;;28.12;18.67;;;;;;;1.99;100.00;98486.00;2143728;82;21543;-84
2022/01/17 02:33:38;;;;;;;33.40;20.12;;;;;;;2.04;100.00;98481.75;2148152;83;21084;-83
2022/01/17 02:36:39;;;;;;;30.02;17.20;;;;;;;2.04;100.00;98484.34;2143377;83;21071;-83
2022/01/17 02:39:40;;;;;;;29.90;19.60;;;;;;;2.07;100.00;98487.94;2147173;82;20953;-84
2022/01/17 02:42:41;;;;;;;28.70;19.40;;;;;;;2.07;100.00;98487.13;2150341;82;21040;-84
2022/01/17 02:48:52;;;;;;;27.70;18.12;;;;;;;2.14;100.00;98481.30;2143546;82;20983;-83
2022/01/17 02:51:54;;;;;;;25.65;17.07;;;;;;;2.15;100.00;98483.41;2148266;82;20914;-83
2022/01/17 02:54:54;;;;;;;29.10;19.45;;;;;;;2.16;100.00;98459.20;2168994;81;20941;-83
2022/01/17 02:57:55;;;;;;;27.60;20.30;;;;;;;2.16;100.00;98469.54;2165783;82;21001;-83
2022/01/17 03:00:56;;;;;;;25.75;17.30;;;;;;;2.17;100.00;98463.42;2154358;82;20989;-83
2022/01/17 03:03:57;;;;;;;29.23;19.65;;;;;;;2.17;100.00;98459.07;2169286;82;20944;-83
2022/01/17 03:06:57;;;;;;;29.35;19.82;;;;;;;2.17;100.00;98447.92;2169439;81;21518;-83
2022/01/17 03:10:02;;;;;;;35.68;21.12;;;;;;;2.17;100.00;98442.28;2150721;82;20922;-83
2022/01/17 03:13:01;;;;;;;27.07;17.00;;;;;;;2.18;100.00;98452.14;2150456;82;20950;-83
2022/01/17 03:16:04;;;;;;;33.48;19.75;;;;;;;2.17;100.00;98456.97;2142838;83;20980;-83
2022/01/17 03:19:04;;;;;;;25.88;17.50;;;;;;;2.15;100.00;98454.52;2145752;83;20938;-83
2022/01/17 03:22:05;;;;;;;28.17;16.82;;;;;;;2.15;100.00;98447.25;2134465;83;21583;-83
2022/01/17 03:25:06;;;;;;;22.20;15.65;;;;;;;2.13;100.00;98437.05;2127364;83;21036;-82
2022/01/17 03:28:07;;;;;;;19.98;14.83;;;;;;;2.13;100.00;98439.63;2134096;82;21466;-83
2022/01/17 03:31:07;;;;;;;21.70;15.45;;;;;;;2.12;100.00;98419.92;2134401;82;21009;-83
2022/01/17 03:34:08;;;;;;;19.77;14.13;;;;;;;2.11;100.00;98411.84;2129168;82;21449;-83
2022/01/17 03:37:09;;;;;;;20.72;15.08;;;;;;;2.10;100.00;98406.30;2134441;82;21493;-83
2022/01/17 03:40:10;;;;;;;20.00;13.98;;;;;;;2.12;100.00;98429.44;2150546;82;20989;-83
2022/01/17 03:43:11;;;;;;;21.15;15.13;;;;;;;2.12;100.00;98420.40;2158869;82;21489;-84
2022/01/17 03:46:12;;;;;;;19.70;14.78;;;;;;;2.13;100.00;98427.20;2134444;82;20985;-83
2022/01/17 03:49:13;;;;;;;17.85;14.20;;;;;;;2.12;100.00;98421.69;2131138;83;21044;-83
2022/01/17 03:52:14;;;;;;;20.95;13.55;;;;;;;2.14;100.00;98416.73;2126798;83;20950;-82
2022/01/17 03:55:15;;;;;;;23.00;15.20;;;;;;;2.15;100.00;98402.86;2126407;83;21303;-82
2022/01/17 03:58:16;;;;;;;24.47;15.00;;;;;;;2.17;100.00;98415.16;2093300;83;21053;-83
2022/01/17 04:01:18;;;;;;;20.35;14.18;;;;;;;2.16;100.00;98402.38;2132685;82;20958;-83
2022/01/17 04:04:19;;;;;;;19.82;13.98;;;;;;;2.17;100.00;98388.03;2134296;82;21009;-83
2022/01/17 04:07:20;;;;;;;24.80;16.10;;;;;;;2.20;100.00;98401.18;2133947;82;21574;-83
2022/01/17 04:10:21;;;;;;;21.48;14.43;;;;;;;2.21;100.00;98390.70;2132730;82;20934;-83
2022/01/17 04:13:22;;;;;;;19.55;14.60;;;;;;;2.25;100.00;98398.52;2134156;82;21480;-84
2022/01/17 04:16:23;;;;;;;18.42;12.98;;;;;;;2.28;100.00;98394.84;2134125;82;21064;-84
2022/01/17 04:19:24;;;;;;;22.00;15.25;;;;;;;2.29;100.00;98381.00;2133730;82;21453;-84
2022/01/17 04:22:25;;;;;;;19.10;13.18;;;;;;;2.32;100.00;98384.59;2133797;82;21002;-83
2022/01/17 04:25:26;;;;;;;17.62;12.47;;;;;;;2.32;100.00;98372.96;2134268;82;21599;-83
2022/01/17 04:28:27;;;;;;;18.92;14.13;;;;;;;2.31;100.00;98361.00;2142795;82;20927;-83
2022/01/17 04:31:27;;;;;;;19.77;13.28;;;;;;;2.33;100.00;98356.98;2134472;82;21092;-83
2022/01/17 04:34:28;;;;;;;21.10;13.78;;;;;;;2.33;100.00;98347.46;2128011;82;21017;-84
2022/01/17 04:37:29;;;;;;;19.42;14.53;;;;;;;2.31;100.00;98355.83;2126969;83;21330;-84
2022/01/17 04:40:35;;;;;;;19.73;13.00;;;;;;;2.33;100.00;98350.52;2127190;83;21036;-84
2022/01/17 04:46:36;;;;;;;19.65;15.18;;;;;;;2.24;100.00;98341.34;2134417;82;21008;-83
2022/01/17 04:49:37;;;;;;;21.15;13.78;;;;;;;2.25;100.00;98346.03;2129763;82;21005;-83
2022/01/17 04:52:38;;;;;;;19.92;12.58;;;;;;;2.23;100.00;98342.77;2126685;83;21579;-84
2022/01/17 04:55:39;;;;;;;17.77;12.63;;;;;;;2.24;100.00;98347.80;2097103;83;20946;-84
2022/01/17 04:58:40;;;;;;;19.37;12.73;;;;;;;2.24;100.00;98323.73;2150394;82;20958;-84
2022/01/17 05:01:40;;;;;;;15.35;11.28;;;;;;;2.24;100.00;98333.59;2134281;82;20955;-84
2022/01/17 05:04:41;;;;;;;19.05;13.32;;;;;;;2.26;100.00;98326.99;2134217;82;21567;-83
2022/01/17 05:07:42;;;;;;;21.55;14.60;;;;;;;2.27;100.00;98322.16;2155544;82;20934;-84
2022/01/17 05:10:46;;;;;;;18.30;13.08;;;;;;;2.29;100.00;98297.03;2136589;82;21565;-83
2022/01/17 05:13:48;;;;;;;17.05;12.53;;;;;;;2.30;100.00;98312.05;2134157;83;21560;-81
2022/01/17 05:16:54;;;;;;;14.83;12.18;;;;;;;2.30;100.00;98311.58;2134436;82;21506;-81
2022/01/17 05:19:57;;;;;;;15.45;12.20;;;;;;;2.30;100.00;98305.11;2129466;82;21512;-82
2022/01/17 05:22:53;;;;;;;16.60;12.95;;;;;;;2.33;100.00;98311.77;2159012;82;21561;-82
2022/01/17 05:25:54;;;;;;;15.75;10.75;;;;;;;2.34;100.00;98280.62;2159803;82;21023;-81
2022/01/17 05:28:55;;;;;;;16.20;12.25;;;;;;;2.35;100.00;98285.31;2140967;82;20997;-82
2022/01/17 05:31:56;;;;;;;14.87;10.58;;;;;;;2.33;100.00;98265.26;2141012;83;21112;-83
2022/01/17 05:34:57;;;;;;;21.80;13.48;;;;;;;2.32;100.00;98261.86;2141254;83;21486;-83
2022/01/17 05:37:57;;;;;;;11.80;9.83;;;;;;;2.33;100.00;98257.03;2149201;82;21003;-83
2022/01/17 05:40:58;;;;;;;19.70;12.73;;;;;;;2.37;100.00;98257.08;2154004;82;20978;-83
2022/01/17 05:43:59;;;;;;;15.00;12.63;;;;;;;2.41;100.00;98244.72;2178695;81;21039;-83
2022/01/17 05:47:00;;;;;;;16.32;11.90;;;;;;;2.44;100.00;98240.07;2139737;81;21004;-83
2022/01/17 05:50:02;;;;;;;18.87;13.20;;;;;;;2.48;100.00;98246.61;2130598;83;20941;-83
2022/01/17 05:53:03;;;;;;;17.65;11.83;;;;;;;2.51;100.00;98246.80;2141401;82;21009;-83
2022/01/17 05:56:04;;;;;;;15.75;12.07;;;;;;;2.53;100.00;98231.48;2140743;83;21504;-83
2022/01/17 05:59:05;;;;;;;15.78;12.33;;;;;;;2.52;100.00;98231.14;2123470;84;21017;-83
2022/01/17 06:02:05;;;;;;;17.82;13.08;;;;;;;2.54;100.00;98231.81;2084930;84;21299;-83
2022/01/17 06:05:06;;;;;;;18.55;13.40;;;;;;;2.52;100.00;98213.53;2094945;84;21016;-83
2022/01/17 06:08:07;;;;;;;18.80;14.03;;;;;;;2.49;100.00;98211.23;2138397;83;20937;-83
2022/01/17 06:11:08;;;;;;;21.55;14.13;;;;;;;2.47;100.00;98193.74;2139464;82;21024;-83
2022/01/17 06:14:09;;;;;;;30.52;17.60;;;;;;;2.43;100.00;98191.12;2159751;82;20954;-83
2022/01/17 06:17:10;;;;;;;28.77;17.77;;;;;;;2.41;100.00;98174.95;2142294;82;21057;-83
2022/01/17 06:20:11;;;;;;;26.82;17.48;;;;;;;2.37;100.00;98173.10;2141018;83;21039;-83
2022/01/17 06:23:11;;;;;;;30.37;16.50;;;;;;;2.37;100.00;98160.66;2149528;83;21011;-83
2022/01/17 06:26:12;;;;;;;24.72;13.38;;;;;;;2.34;100.00;98156.59;2150368;83;21003;-83
2022/01/17 06:29:13;;;;;;;23.25;12.55;;;;;;;2.31;100.00;98154.78;2148062;83;21118;-84
2022/01/17 06:32:14;;;;;;;17.05;11.97;;;;;;;2.28;100.00;98133.90;2143055;83;21007;-83
2022/01/17 06:35:15;;;;;;;20.48;13.00;;;;;;;2.24;100.00;98130.80;2142763;83;20925;-83
2022/01/17 06:38:15;;;;;;;18.05;12.10;;;;;;;2.21;100.00;98125.92;2145885;83;21488;-83
2022/01/17 06:41:16;;;;;;;19.45;13.18;;;;;;;2.21;100.00;98118.66;2144459;83;21504;-83
2022/01/17 06:44:17;;;;;;;17.90;12.45;;;;;;;2.22;100.00;98117.69;2143405;83;21079;-83
2022/01/17 06:47:18;;;;;;;19.52;13.53;;;;;;;2.23;100.00;98111.09;2145051;83;20985;-84
2022/01/17 06:50:18;;;;;;;21.45;12.07;;;;;;;2.21;100.00;98118.17;2151734;82;20920;-83
2022/01/17 06:53:19;;;;;;;17.25;12.28;;;;;;;2.20;100.00;98097.66;2150182;83;21153;-85
2022/01/17 06:56:20;;;;;;;14.70;11.63;;;;;;;2.20;100.00;98104.92;2149298;83;20982;-82
2022/01/17 06:59:21;;;;;;;14.20;10.30;;;;;;;2.22;100.00;98094.44;2146370;83;20969;-82
2022/01/17 07:02:22;;;;;;;15.93;10.60;;;;;;;2.22;100.00;98077.17;2147699;83;21072;-83
2022/01/17 07:05:22;;;;;;;14.83;10.65;;;;;;;2.26;100.00;98063.48;2147953;82;21409;-85
2022/01/17 07:08:23;;;;;;;11.48;9.53;;;;;;;2.28;100.00;98050.75;2151439;82;21072;-85
2022/01/17 07:11:26;;;;;;;13.98;10.18;;;;;;;2.31;100.00;98046.28;2119159;83;21024;-83
2022/01/17 07:14:26;;;;;;;17.20;10.50;;;;;;;2.33;100.00;98049.52;2110154;83;21061;-82
2022/01/17 07:17:27;;;;;;;12.53;9.93;;;;;;;2.36;100.00;98069.41;2070180;85;21033;-82
2022/01/17 07:20:28;;;;;;;18.77;14.47;;;;;;;2.39;100.00;98073.03;2078834;85;21499;-81
2022/01/17 07:23:28;;;;;;;13.00;10.03;;;;;;;2.38;100.00;98079.16;2082374;85;20994;-81
2022/01/17 07:26:29;;;;;;;14.50;9.65;;;;;;;2.39;100.00;98096.28;2112289;83;21459;-81
2022/01/17 07:29:30;;;;;;;13.48;9.78;;;;;;;2.41;100.00;98098.23;2107814;83;20974;-81
2022/01/17 07:32:31;;;;;;;15.30;10.48;;;;;;;2.42;100.00;98070.14;2106540;83;21080;-83
2022/01/17 07:35:32;;;;;;;11.25;9.13;;;;;;;2.47;100.00;98056.33;2104787;84;20997;-82
2022/01/17 07:38:32;;;;;;;12.43;9.63;;;;;;;2.52;100.00;98028.74;2104769;83;20933;-81
2022/01/17 07:41:33;;;;;;;12.45;10.63;;;;;;;2.54;100.00;98007.44;2098555;85;21492;-84
2022/01/17 07:44:34;;;;;;;12.55;9.15;;;;;;;2.52;100.00;97998.55;2107343;84;20996;-83
2022/01/17 07:47:42;;;;;;;10.23;8.68;;;;;;;2.51;100.00;98005.16;2105861;84;21028;-86
2022/01/17 07:50:42;;;;;;;10.63;9.25;;;;;;;2.52;100.00;97992.56;2085013;85;21042;-87
2022/01/17 07:53:43;;;;;;;17.92;11.30;;;;;;;2.53;100.00;97962.69;2094153;85;21517;-86
2022/01/17 07:56:43;;;;;;;13.15;9.88;;;;;;;2.55;100.00;97956.89;2121624;84;21004;-86
2022/01/17 07:59:44;;;;;;;11.10;7.55;;;;;;;2.56;100.00;97931.86;2087531;84;21024;-86
2022/01/17 08:02:45;;;;;;;14.23;9.68;;;;;;;2.55;100.00;97924.58;2107452;84;20984;-86
2022/01/17 08:05:46;;;;;;;10.60;8.08;;;;;;;2.57;100.00;97915.41;2113389;84;21744;-86
2022/01/17 08:08:47;;;;;;;9.75;7.22;;;;;;;2.60;100.00;97894.43;2088245;84;21044;-86
2022/01/17 08:11:51;;;;;;;9.75;7.80;;;;;;;2.61;100.00;97888.30;2073224;85;21554;-85
2022/01/17 08:14:51;;;;;;;8.98;7.95;;;;;;;2.64;100.00;97876.36;2078974;85;21046;-86
2022/01/17 08:17:51;;;;;;;8.83;7.75;;;;;;;2.67;100.00;97873.50;2083479;85;21009;-86
2022/01/17 08:20:52;;;;;;;9.28;7.12;;;;;;;2.66;100.00;97862.02;2085405;85;21117;-85
2022/01/17 08:23:53;;;;;;;9.08;8.18;;;;;;;2.70;100.00;97887.41;2082453;85;20986;-86
2022/01/17 08:26:54;;;;;;;7.75;6.95;;;;;;;2.72;100.00;97867.86;2084460;85;21062;-84
2022/01/17 08:29:55;;;;;;;11.12;8.30;;;;;;;2.76;100.00;97872.59;2097924;84;21037;-86
2022/01/17 08:32:55;;;;;;;11.00;7.50;;;;;;;2.78;100.00;97882.78;2087809;85;20970;-87
2022/01/17 08:35:56;;;;;;;9.38;7.33;;;;;;;2.82;100.00;97864.70;2097725;84;20997;-89
2022/01/17 08:38:57;;;;;;;11.00;7.65;;;;;;;2.81;100.00;97831.57;2090433;84;21072;-88
2022/01/17 08:41:58;;;;;;;8.20;6.60;;;;;;;2.88;100.00;97843.90;2102028;84;21123;-86
2022/01/17 08:44:59;;;;;;;8.75;6.97;;;;;;;2.90;100.00;97830.33;2100579;85;21080;-85
2022/01/17 08:48:00;;;;;;;6.40;5.78;;;;;;;2.89;100.00;97835.17;2148250;82;21492;-86
2022/01/17 08:51:00;;;;;;;9.20;7.55;;;;;;;2.89;100.00;97814.48;2165645;82;20978;-85
2022/01/17 08:54:01;;;;;;;7.90;6.03;;;;;;;2.87;100.00;97782.33;2165541;82;20930;-85
2022/01/17 08:57:02;;;;;;;13.18;7.92;;;;;;;2.84;100.00;97804.14;2165914;81;21048;-88
2022/01/17 09:00:03;;;;;;;11.15;7.12;;;;;;;2.82;100.00;97794.41;2150958;81;21493;-85
2022/01/17 09:03:03;;;;;;;12.98;8.33;;;;;;;2.80;100.00;97785.19;2141757;81;21555;-86
2022/01/17 09:06:04;;;;;;;11.97;8.68;;;;;;;2.79;100.00;97803.77;2136653;83;20965;-85
2022/01/17 09:09:05;;;;;;;10.25;8.53;;;;;;;2.78;100.00;97769.83;2136682;83;21096;-85
2022/01/17 09:12:06;;;;;;;8.88;7.55;;;;;;;2.78;100.00;97806.03;2142532;82;21087;-84
2022/01/17 09:15:07;;;;;;;9.43;7.45;;;;;;;2.76;100.00;97785.98;2137101;83;20906;-85
2022/01/17 09:18:07;;;;;;;9.45;6.50;;;;;;;2.79;100.00;97791.33;2140917;82;21068;-85
2022/01/17 09:21:09;;;;;;;8.35;6.90;;;;;;;2.80;100.00;97786.00;2139099;83;21004;-86
2022/01/17 09:24:09;;;;;;;9.93;6.30;;;;;;;2.82;100.00;97766.45;2129903;82;21069;-85
2022/01/17 09:27:12;;;;;;;8.58;6.80;;;;;;;2.82;100.00;97761.28;2109813;84;20895;-85
2022/01/17 09:30:13;;;;;;;7.15;6.17;;;;;;;2.83;100.00;97770.20;2130340;83;21077;-85
2022/01/17 09:33:13;;;;;;;9.03;7.37;;;;;;;2.84;100.00;97774.41;2129550;83;20953;-85
2022/01/17 09:36:14;;;;;;;11.78;7.80;;;;;;;2.89;100.00;97760.19;2110332;84;21455;-84
2022/01/17 09:39:15;;;;;;;11.00;6.65;;;;;;;2.92;100.00;97740.48;2130297;83;21052;-84
2022/01/17 09:42:16;;;;;;;8.30;6.47;;;;;;;2.93;100.00;97718.85;2103881;84;21020;-85
2022/01/17 09:45:17;;;;;;;9.40;6.65;;;;;;;2.93;100.00;97729.20;2129469;82;21086;-85
2022/01/17 09:48:20;;;;;;;11.85;8.45;;;;;;;2.90;100.00;97719.95;2128164;83;22372;-84
2022/01/17 09:51:38;;;;;;;12.13;7.47;;;;;;;2.96;100.00;97706.41;2129546;83;21212;-85
2022/01/17 09:54:23;;;;;;;9.35;6.83;;;;;;;2.96;100.00;97710.29;2127813;83;20997;-85
2022/01/17 09:57:25;;;;;;;8.30;6.05;;;;;;;3.01;100.00;97703.34;2129101;83;21085;-83
2022/01/17 10:00:26;;;;;;;9.38;7.00;;;;;;;3.02;100.00;97676.55;2130034;82;21025;-86
2022/01/17 10:03:27;;;;;;;7.35;4.58;;;;;;;3.02;100.00;97676.05;2127750;83;21021;-85
2022/01/17 10:06:28;;;;;;;7.75;5.58;;;;;;;3.01;100.00;97684.75;2128684;83;21069;-84
2022/01/17 10:09:29;;;;;;;6.42;4.80;;;;;;;3.03;100.00;97698.36;2128922;83;21497;-86
2022/01/17 10:12:29;;;;;;;4.83;4.28;;;;;;;3.03;100.00;97695.78;2107959;84;20980;-85
2022/01/17 10:15:43;;;;;;;7.03;4.67;;;;;;;3.05;100.00;97700.30;2135837;82;20958;-86
2022/01/17 10:18:33;;;;;;;3.65;3.33;;;;;;;3.08;100.00;97697.39;2142187;82;20988;-86
2022/01/17 10:21:37;;;;;;;6.33;3.62;;;;;;;3.09;100.00;97688.66;2102253;84;21072;-85
2022/01/17 10:31:33;;;;;;;3.10;2.85;;;;;;;3.17;100.00;97684.00;2094898;84;21521;-86
2022/01/17 10:37:30;;;;;;;5.15;2.70;;;;;;;3.18;100.00;97677.86;2126845;83;21072;-84
2022/01/17 10:40:31;;;;;;;3.17;2.50;;;;;;;3.17;100.00;97662.50;2126883;83;21089;-88
2022/01/17 10:43:35;;;;;;;3.27;3.00;;;;;;;3.14;100.00;97649.41;2112767;84;21016;-88
2022/01/17 10:46:35;;;;;;;3.08;2.77;;;;;;;3.14;100.00;97646.33;2127618;83;21053;-88
2022/01/17 10:49:36;;;;;;;3.33;2.08;;;;;;;3.16;100.00;97642.78;2104902;83;20994;-87
2022/01/17 10:52:37;;;;;;;3.33;3.00;;;;;;;3.16;100.00;97616.42;2133038;83;20989;-88
2022/01/17 10:55:38;;;;;;;2.67;2.47;;;;;;;3.20;100.00;97610.44;2125153;84;21527;-86
2022/01/17 10:58:39;;;;;;;3.47;3.02;;;;;;;3.22;100.00;97589.12;2125299;84;21480;-88
2022/01/17 11:01:39;;;;;;;2.55;2.25;;;;;;;3.22;100.00;97603.34;2156921;82;21099;-88
2022/01/17 11:04:41;;;;;;;2.35;2.25;;;;;;;3.20;100.00;97612.56;2158928;82;21616;-88
2022/01/17 11:07:42;;;;;;;5.12;2.90;;;;;;;3.20;100.00;97651.83;2157159;82;21022;-87
2022/01/17 11:10:43;;;;;;;0.90;0.60;;;;;;;3.06;100.00;97858.40;2062228;81;21563;-88
2022/01/17 11:13:47;;;;;;;1.37;1.10;;;;;;;2.12;100.00;97910.30;2002779;89;21048;-86
2022/01/17 11:16:46;;;;;;;0.90;0.90;;;;;;;1.31;100.00;97919.97;2003473;86;21131;-86
2022/01/17 11:20:04;;;;;;;0.78;0.78;;;;;;;0.85;100.00;97949.91;1996233;87;21013;-84
2022/01/17 11:23:05;;;;;;;2.05;1.45;;;;;;;0.51;100.00;97935.80;1996408;89;21499;-83
2022/01/17 11:26:06;;;;;;;0.78;0.78;;;;;;;0.30;100.00;97955.23;2005315;87;21020;-87
2022/01/17 11:29:07;;;;;;;0.80;0.80;;;;;;;0.09;100.00;97955.78;2007193;87;21053;-85
2022/01/17 11:32:07;;;;;;;1.80;1.22;;;;;;;-0.07;100.00;97975.14;2036337;81;21046;-79
2022/01/17 11:35:08;;;;;;;2.72;1.05;;;;;;;-0.17;100.00;97957.56;2135354;81;22553;-84
2022/01/17 11:38:09;;;;;;;1.10;0.98;;;;;;;-0.24;100.00;97987.33;2147053;81;22655;-85
2022/01/17 11:41:10;;;;;;;2.40;1.12;;;;;;;-0.30;100.00;97986.54;2149639;82;21127;-85
2022/01/17 11:44:10;;;;;;;3.87;2.52;;;;;;;-0.43;100.00;97998.34;2145323;82;21804;-85
2022/01/17 11:47:11;;;;;;;6.00;2.80;;;;;;;-0.51;100.00;97996.06;2122686;84;20989;-85
2022/01/17 11:50:12;;;;;;;4.78;3.08;;;;;;;-0.55;100.00;98007.53;2137383;81;21068;-86
2022/01/17 11:53:13;;;;;;;4.60;2.45;;;;;;;-0.61;100.00;98013.53;2149348;81;21535;-86
2022/01/17 11:56:15;;;;;;;5.37;3.33;;;;;;;-0.65;100.00;98030.14;2149997;82;21056;-86
2022/01/17 11:59:16;;;;;;;3.52;2.60;;;;;;;-0.67;100.00;98029.93;2070600;85;20996;-87
2022/01/17 12:02:17;;;;;;;6.55;3.30;;;;;;;-0.69;100.00;98026.20;2137887;82;20955;-87
2022/01/17 12:05:17;;;;;;;3.98;2.95;;;;;;;-0.64;100.00;98003.95;2140803;82;20999;-86
2022/01/17 12:08:18;;;;;;;7.08;4.75;;;;;;;-0.59;100.00;98001.36;2138645;83;21482;-86
2022/01/17 12:11:19;;;;;;;13.28;6.37;;;;;;;-0.46;100.00;97982.33;2129640;82;21106;-87
2022/01/17 12:14:20;;;;;;;9.23;5.25;;;;;;;-0.38;100.00;97985.89;2140197;82;21004;-87
2022/01/17 12:17:23;;;;;;;9.68;4.75;;;;;;;-0.31;100.00;97987.48;2130571;82;21092;-87
2022/01/17 12:20:24;;;;;;;9.30;5.78;;;;;;;-0.23;100.00;97981.70;2097060;85;21064;-85
2022/01/17 12:23:25;;;;;;;9.48;4.87;;;;;;;-0.18;100.00;97984.24;2093529;85;21109;-86
2022/01/17 12:26:28;;;;;;;7.75;5.35;;;;;;;-0.10;100.00;97992.10;2071171;85;20982;-85
2022/01/17 12:29:29;;;;;;;6.20;3.95;;;;;;;-0.06;100.00;98002.97;2097829;83;21032;-86
2022/01/17 12:32:35;;;;;;;5.62;3.92;;;;;;;-0.05;100.00;98022.61;2063411;85;21021;-87
2022/01/17 12:35:33;;;;;;;4.17;3.33;;;;;;;-0.02;100.00;98014.63;2056710;86;21073;-91
2022/01/17 12:38:36;;;;;;;3.75;2.83;;;;;;;-0.02;100.00;98015.44;2134293;83;21060;-86
2022/01/17 12:41:37;;;;;;;4.95;3.45;;;;;;;-0.04;100.00;98021.66;2157314;82;21000;-86
2022/01/17 12:44:43;;;;;;;6.40;3.92;;;;;;;-0.06;100.00;98059.59;2166258;81;21958;-85
2022/01/17 12:47:42;;;;;;;8.00;4.85;;;;;;;-0.10;100.00;98114.82;2141932;81;21009;-86
2022/01/17 12:50:42;;;;;;;5.67;4.20;;;;;;;-0.14;100.00;98111.70;2139133;83;21111;-86
2022/01/17 12:53:43;;;;;;;8.13;4.92;;;;;;;-0.19;100.00;98109.14;2144626;82;21475;-85
2022/01/17 12:56:44;;;;;;;16.77;8.30;;;;;;;-0.25;100.00;98117.39;2139040;82;21040;-83
2022/01/17 12:59:45;;;;;;;15.50;8.25;;;;;;;-0.28;100.00;98093.99;2133933;82;21069;-85
2022/01/17 13:02:45;;;;;;;19.07;9.10;;;;;;;-0.31;100.00;98096.83;2135650;82;21060;-82
2022/01/17 13:05:46;;;;;;;14.18;8.13;;;;;;;-0.31;100.00;98123.84;2146895;82;21096;-81
2022/01/17 13:08:47;;;;;;;14.53;8.70;;;;;;;-0.32;100.00;98151.80;2173535;82;20961;-83
2022/01/17 13:11:48;;;;;;;16.85;9.05;;;;;;;-0.27;100.00;98154.83;2088796;85;21056;-83
2022/01/17 13:14:49;;;;;;;26.42;13.58;;;;;;;-0.23;100.00;98169.53;2078136;84;21013;-84
2022/01/17 13:17:50;;;;;;;24.72;12.47;;;;;;;-0.20;100.00;98177.81;2091417;84;21059;-85
2022/01/17 13:20:51;;;;;;;20.35;10.23;;;;;;;-0.17;100.00;98185.30;2074959;84;21010;-82
2022/01/17 13:23:57;;;;;;;17.25;9.53;;;;;;;-0.12;100.00;98192.63;2084979;84;20961;-83
2022/01/17 13:26:56;;;;;;;14.05;7.78;;;;;;;-0.11;100.00;98196.36;2087861;84;21048;-83
2022/01/17 13:29:57;;;;;;;16.07;9.90;;;;;;;-0.11;100.00;98191.69;2072967;86;21552;-84
2022/01/17 13:32:58;;;;;;;13.93;6.78;;;;;;;-0.09;100.00;98202.67;2074150;84;21423;-84
2022/01/17 13:35:59;;;;;;;19.73;8.88;;;;;;;-0.09;100.00;98217.67;2073769;84;21543;-82
2022/01/17 13:38:59;;;;;;;11.55;6.00;;;;;;;-0.06;100.00;98238.00;2074077;85;20965;-81
2022/01/17 13:42:00;;;;;;;18.55;9.05;;;;;;;-0.03;100.00;98241.60;2101163;85;21056;-82
2022/01/17 13:45:01;;;;;;;19.48;8.95;;;;;;;-0.03;100.00;98258.33;2090983;85;20934;-82
2022/01/17 13:48:02;;;;;;;14.53;7.92;;;;;;;-0.02;100.00;98274.12;2090726;85;21048;-81
2022/01/17 13:51:03;;;;;;;18.65;9.43;;;;;;;0.01;100.00;98261.50;2094126;84;21132;-80
2022/01/17 13:54:04;;;;;;;19.40;8.85;;;;;;;0.01;100.00;98256.82;2071211;85;21548;-81
2022/01/17 13:57:05;;;;;;;22.87;10.93;;;;;;;0.01;100.00;98271.80;2085066;85;20984;-82
2022/01/17 14:00:05;;;;;;;18.37;9.48;;;;;;;0.01;100.00;98266.64;2099238;85;20972;-84
2022/01/17 14:03:06;;;;;;;18.02;9.38;;;;;;;0.02;100.00;98272.14;2098909;85;20984;-83
2022/01/17 14:06:07;;;;;;;18.12;10.55;;;;;;;0.03;100.00;98280.20;2106068;84;21468;-82
2022/01/17 14:09:08;;;;;;;17.12;8.85;;;;;;;0.02;100.00;98308.17;2047015;86;21455;-82
2022/01/17 14:12:09;;;;;;;19.85;10.25;;;;;;;-0.01;100.00;98319.52;2070753;85;21188;-82
2022/01/17 14:15:10;;;;;;;20.15;9.05;;;;;;;-0.01;100.00;98316.13;2096040;85;20968;-82
2022/01/17 14:18:10;;;;;;;18.85;9.70;;;;;;;-0.01;100.00;98316.94;2105646;85;21515;-81
2022/01/17 14:21:11;;;;;;;17.27;9.70;;;;;;;-0.03;100.00;98315.44;2105405;85;20985;-82